createdAt,value
2023-05-21T00:00:51.742Z,12.36
2023-05-21T00:03:21.672Z,12.32
2023-05-21T00:05:54.759Z,12.31
2023-05-21T00:08:24.534Z,12.28
2023-05-21T00:10:54.489Z,12.26
2023-05-21T00:13:24.214Z,12.24
2023-05-21T00:15:54.102Z,12.23
2023-05-21T00:18:25.504Z,12.22
2023-05-21T00:20:57.951Z,12.20
2023-05-21T00:23:27.923Z,12.18
2023-05-21T00:25:57.732Z,12.17
2023-05-21T00:28:27.563Z,12.16
2023-05-21T00:30:57.259Z,12.15
2023-05-21T00:33:29.122Z,12.13
2023-05-21T00:36:02.202Z,12.10
2023-05-21T00:38:33.084Z,12.08
2023-05-21T00:41:03.921Z,12.07
2023-05-21T00:43:34.111Z,12.04
2023-05-21T00:46:03.884Z,12.01
2023-05-21T00:48:33.723Z,12.00
2023-05-21T00:51:06.140Z,11.97
2023-05-21T00:53:36.434Z,11.95
2023-05-21T00:56:06.613Z,11.94
2023-05-21T00:58:36.768Z,11.92
2023-05-21T01:01:07.151Z,11.88
2023-05-21T01:03:38.739Z,11.87
2023-05-21T01:06:14.132Z,11.85
2023-05-21T01:08:44.418Z,11.82
2023-05-21T01:11:15.175Z,11.81
2023-05-21T01:13:45.685Z,11.80
2023-05-21T01:16:17.899Z,11.80
2023-05-21T01:18:47.954Z,11.79
2023-05-21T01:21:21.777Z,11.77
2023-05-21T01:23:54.159Z,11.79
2023-05-21T01:26:26.162Z,11.77
2023-05-21T01:28:56.074Z,11.73
2023-05-21T01:31:31.380Z,11.70
2023-05-21T01:34:04.544Z,11.69
2023-05-21T01:36:38.302Z,11.69
2023-05-21T01:39:14.168Z,11.66
2023-05-21T01:41:46.998Z,11.63
2023-05-21T01:44:18.314Z,11.62
2023-05-21T01:46:49.670Z,11.60
2023-05-21T01:49:20.846Z,11.60
2023-05-21T01:51:51.464Z,11.57
2023-05-21T01:54:24.822Z,11.55
2023-05-21T01:56:55.854Z,11.55
2023-05-21T01:59:25.936Z,11.54
2023-05-21T02:01:55.844Z,11.53
2023-05-21T02:04:25.709Z,11.55
2023-05-21T02:06:55.832Z,11.55
2023-05-21T02:09:28.230Z,11.54
2023-05-21T02:11:58.896Z,11.54
2023-05-21T02:14:29.975Z,11.54
2023-05-21T02:16:59.704Z,11.53
2023-05-21T02:19:29.568Z,11.51
2023-05-21T02:21:59.464Z,11.49
2023-05-21T02:24:31.808Z,11.51
2023-05-21T02:27:01.631Z,11.49
2023-05-21T02:29:31.328Z,11.46
2023-05-21T02:32:01.157Z,11.44
2023-05-21T02:34:32.372Z,11.43
2023-05-21T02:37:02.575Z,11.42
2023-05-21T02:39:35.061Z,11.39
2023-05-21T02:42:04.928Z,11.39
2023-05-21T02:44:34.630Z,11.40
2023-05-21T02:47:05.282Z,11.39
2023-05-21T02:49:35.404Z,11.38
2023-05-21T02:52:05.104Z,11.38
2023-05-21T02:54:37.448Z,11.36
2023-05-21T02:57:07.430Z,11.33
2023-05-21T02:59:37.132Z,11.32
2023-05-21T03:02:07.066Z,11.30
2023-05-21T03:04:46.216Z,11.31
2023-05-21T03:07:18.228Z,11.30
2023-05-21T03:09:51.166Z,11.30
2023-05-21T03:12:21.112Z,11.31
2023-05-21T03:14:51.997Z,11.29
2023-05-21T03:17:23.200Z,11.28
2023-05-21T03:19:54.754Z,11.27
2023-05-21T03:22:24.611Z,11.26
2023-05-21T03:24:58.365Z,11.26
2023-05-21T03:27:28.388Z,11.26
2023-05-21T03:29:59.492Z,11.24
2023-05-21T03:32:30.445Z,11.23
2023-05-21T03:35:00.763Z,11.21
2023-05-21T03:37:30.485Z,11.18
2023-05-21T03:40:03.678Z,11.18
2023-05-21T03:42:33.617Z,11.16
2023-05-21T03:45:03.478Z,11.17
2023-05-21T03:47:53.259Z,11.18
2023-05-21T03:50:23.109Z,11.17
2023-05-21T03:52:52.938Z,11.16
2023-05-21T03:55:25.583Z,11.17
2023-05-21T03:57:55.320Z,11.14
2023-05-21T04:00:25.827Z,11.14
2023-05-21T04:02:55.914Z,11.14
2023-05-21T04:05:25.824Z,11.14
2023-05-21T04:07:55.558Z,11.13
2023-05-21T04:10:28.581Z,11.16
2023-05-21T04:12:58.340Z,11.17
2023-05-21T04:15:29.574Z,11.19
2023-05-21T04:18:00.609Z,11.17
2023-05-21T04:20:30.440Z,11.17
2023-05-21T04:23:00.121Z,11.20
2023-05-21T04:25:32.898Z,11.19
2023-05-21T04:28:02.743Z,11.21
2023-05-21T04:30:35.677Z,11.21
2023-05-21T04:33:07.503Z,11.20
2023-05-21T04:35:38.275Z,11.21
2023-05-21T04:38:09.850Z,11.25
2023-05-21T04:40:43.697Z,11.26
2023-05-21T04:43:14.711Z,11.28
2023-05-21T04:45:44.507Z,11.27
2023-05-21T04:48:15.887Z,11.29
2023-05-21T04:50:45.631Z,11.30
2023-05-21T04:53:15.383Z,11.32
2023-05-21T04:55:48.182Z,11.34
2023-05-21T04:58:19.235Z,11.36
2023-05-21T05:00:51.187Z,11.41
2023-05-21T05:03:21.290Z,11.43
2023-05-21T05:05:51.767Z,11.45
2023-05-21T05:08:22.968Z,11.48
2023-05-21T05:10:55.442Z,11.51
2023-05-21T05:13:25.188Z,11.55
2023-05-21T05:15:55.250Z,11.58
2023-05-21T05:18:25.124Z,11.61
2023-05-21T05:20:54.861Z,11.65
2023-05-21T05:23:24.719Z,11.68
2023-05-21T05:25:57.136Z,11.70
2023-05-21T05:28:26.901Z,11.73
2023-05-21T05:30:57.098Z,11.78
2023-05-21T05:33:28.994Z,11.82
2023-05-21T05:35:59.231Z,11.86
2023-05-21T05:38:29.412Z,11.88
2023-05-21T05:41:01.793Z,11.92
2023-05-21T05:43:32.003Z,11.96
2023-05-21T05:46:02.710Z,12.01
2023-05-21T05:48:32.518Z,12.06
2023-05-21T05:51:02.507Z,12.13
2023-05-21T05:53:34.059Z,12.18
2023-05-21T05:56:07.003Z,12.23
2023-05-21T05:58:36.771Z,12.27
2023-05-21T06:01:13.565Z,12.32
2023-05-21T06:03:44.010Z,12.38
2023-05-21T06:06:17.719Z,12.44
2023-05-21T06:08:47.835Z,12.50
2023-05-21T06:11:20.284Z,12.54
2023-05-21T06:13:50.090Z,12.59
2023-05-21T06:16:21.080Z,12.65
2023-05-21T06:18:50.834Z,12.69
2023-05-21T06:21:20.929Z,12.75
2023-05-21T06:23:50.864Z,12.80
2023-05-21T06:26:23.392Z,12.85
2023-05-21T06:28:54.648Z,12.92
2023-05-21T06:31:24.794Z,12.97
2023-05-21T06:33:55.026Z,13.03
2023-05-21T06:36:26.343Z,13.06
2023-05-21T06:38:56.145Z,13.10
2023-05-21T06:41:29.878Z,13.15
2023-05-21T06:44:02.501Z,13.21
2023-05-21T06:46:51.310Z,13.26
2023-05-21T06:49:22.356Z,13.31
2023-05-21T06:51:52.239Z,13.36
2023-05-21T06:54:22.133Z,13.40
2023-05-21T06:56:55.826Z,13.49
2023-05-21T06:59:25.662Z,13.52
2023-05-21T07:01:59.325Z,13.61
2023-05-21T07:04:29.148Z,13.71
2023-05-21T07:06:58.940Z,13.77
2023-05-21T07:09:28.734Z,13.87
2023-05-21T07:12:02.325Z,13.97
2023-05-21T07:14:32.492Z,14.05
2023-05-21T07:17:02.542Z,14.14
2023-05-21T07:19:32.580Z,14.24
2023-05-21T07:22:02.476Z,14.30
2023-05-21T07:24:32.214Z,14.32
2023-05-21T07:27:17.852Z,14.40
2023-05-21T07:29:55.703Z,14.50
2023-05-21T07:32:26.991Z,14.61
2023-05-21T07:34:57.269Z,14.72
2023-05-21T07:37:29.603Z,14.85
2023-05-21T07:40:00.640Z,14.96
2023-05-21T07:42:33.972Z,15.05
2023-05-21T07:45:05.176Z,15.06
2023-05-21T07:47:40.903Z,15.09
2023-05-21T07:50:11.541Z,15.11
2023-05-21T07:52:41.281Z,15.11
2023-05-21T07:55:12.380Z,15.15
2023-05-21T07:57:46.391Z,15.25
2023-05-21T08:00:19.240Z,15.38
2023-05-21T08:02:55.508Z,15.54
2023-05-21T08:05:25.811Z,15.72
2023-05-21T08:07:55.748Z,15.82
2023-05-21T08:10:25.995Z,15.93
2023-05-21T08:12:58.390Z,16.03
2023-05-21T08:15:28.154Z,16.15
2023-05-21T08:17:58.180Z,16.24
2023-05-21T08:20:31.030Z,16.29
2023-05-21T08:23:00.989Z,16.39
2023-05-21T08:25:34.615Z,16.48
2023-05-21T08:28:09.736Z,16.61
2023-05-21T08:30:39.572Z,16.80
2023-05-21T08:33:09.309Z,16.90
2023-05-21T08:35:39.344Z,16.98
2023-05-21T08:38:19.222Z,17.05
2023-05-21T08:41:01.376Z,17.15
2023-05-21T08:43:35.755Z,17.25
2023-05-21T08:46:07.620Z,17.28
2023-05-21T08:48:40.891Z,17.37
2023-05-21T08:51:10.770Z,17.47
2023-05-21T08:53:47.134Z,17.57
2023-05-21T08:56:20.256Z,17.61
2023-05-21T08:58:59.436Z,17.69
2023-05-21T09:01:32.286Z,17.72
2023-05-21T09:04:21.180Z,17.82
2023-05-21T09:06:58.068Z,17.95
2023-05-21T09:09:59.720Z,18.12
2023-05-21T09:12:30.785Z,18.27
2023-05-21T09:15:06.672Z,18.39
2023-05-21T09:17:38.994Z,18.50
2023-05-21T09:20:33.440Z,18.56
2023-05-21T09:23:06.840Z,18.70
2023-05-21T09:25:36.816Z,18.84
2023-05-21T09:28:15.037Z,18.93
2023-05-21T09:30:53.625Z,19.03
2023-05-21T09:33:30.780Z,19.15
2023-05-21T09:36:02.262Z,19.11
2023-05-21T09:38:32.298Z,19.19
2023-05-21T09:41:02.009Z,19.19
2023-05-21T09:43:33.905Z,19.20
2023-05-21T09:46:06.918Z,19.17
2023-05-21T09:48:38.364Z,19.16
2023-05-21T09:51:14.936Z,19.15
2023-05-21T09:53:53.543Z,19.12
2023-05-21T09:56:27.672Z,19.19
2023-05-21T09:58:58.183Z,19.20
2023-05-21T10:01:30.858Z,19.22
2023-05-21T10:04:03.157Z,19.31
2023-05-21T10:06:34.165Z,19.42
2023-05-21T10:09:06.075Z,19.46
2023-05-21T10:11:36.905Z,19.50
2023-05-21T10:14:09.190Z,19.58
2023-05-21T10:16:41.684Z,19.56
2023-05-21T10:19:12.381Z,19.68
2023-05-21T10:21:43.115Z,19.79
2023-05-21T10:24:13.105Z,19.83
2023-05-21T10:26:44.317Z,19.94
2023-05-21T10:29:14.143Z,20.01
2023-05-21T10:31:50.129Z,19.96
2023-05-21T10:34:20.136Z,20.09
2023-05-21T10:36:52.162Z,20.09
2023-05-21T10:39:24.215Z,20.11
2023-05-21T10:41:59.390Z,20.18
2023-05-21T10:44:35.808Z,20.22
2023-05-21T10:47:29.309Z,20.17
2023-05-21T10:50:28.663Z,20.19
2023-05-21T10:53:10.031Z,20.14
2023-05-21T10:55:49.899Z,20.10
2023-05-21T10:58:40.416Z,20.19
2023-05-21T11:01:10.665Z,20.26
2023-05-21T11:03:43.108Z,20.23
2023-05-21T11:06:13.455Z,20.31
2023-05-21T11:08:53.776Z,20.30
2023-05-21T11:11:45.234Z,20.36
2023-05-21T11:14:32.681Z,20.47
2023-05-21T11:17:02.952Z,20.51
2023-05-21T11:19:39.670Z,20.49
2023-05-21T11:22:13.989Z,20.49
2023-05-21T11:24:44.388Z,20.55
2023-05-21T11:27:14.543Z,20.63
2023-05-21T11:29:47.957Z,20.67
2023-05-21T11:32:20.814Z,20.75
2023-05-21T11:34:53.234Z,20.79
2023-05-21T11:37:30.755Z,20.85
2023-05-21T11:40:01.942Z,20.91
2023-05-21T11:42:33.156Z,20.98
2023-05-21T11:45:04.383Z,21.12
2023-05-21T11:47:35.185Z,21.11
2023-05-21T11:50:08.479Z,21.16
2023-05-21T11:52:38.265Z,21.27
2023-05-21T11:55:09.506Z,21.35
2023-05-21T11:57:40.549Z,21.33
2023-05-21T12:00:16.839Z,21.42
2023-05-21T12:02:50.743Z,21.42
2023-05-21T12:05:27.369Z,21.46
2023-05-21T12:07:58.533Z,21.48
2023-05-21T12:10:28.330Z,21.55
2023-05-21T12:12:58.083Z,21.62
2023-05-21T12:15:29.149Z,21.68
2023-05-21T12:17:58.961Z,21.72
2023-05-21T12:20:31.868Z,21.81
2023-05-21T12:23:02.084Z,21.88
2023-05-21T12:25:32.349Z,21.90
2023-05-21T12:28:03.596Z,21.96
2023-05-21T12:30:33.345Z,21.95
2023-05-21T12:33:04.584Z,22.00
2023-05-21T12:35:37.135Z,22.02
2023-05-21T12:38:07.014Z,22.05
2023-05-21T12:40:41.176Z,22.06
2023-05-21T12:43:11.282Z,22.08
2023-05-21T12:45:42.130Z,22.09
2023-05-21T12:48:12.661Z,22.04
2023-05-21T12:50:46.338Z,22.08
2023-05-21T12:53:16.112Z,22.19
2023-05-21T12:55:45.846Z,22.19
2023-05-21T12:58:17.396Z,22.22
2023-05-21T13:00:47.306Z,22.28
2023-05-21T13:03:17.218Z,22.30
2023-05-21T13:05:49.830Z,22.36
2023-05-21T13:08:19.581Z,22.42
2023-05-21T13:10:49.276Z,22.46
2023-05-21T13:13:19.257Z,22.55
2023-05-21T13:15:49.158Z,22.69
2023-05-21T13:18:20.995Z,22.80
2023-05-21T13:20:53.550Z,22.86
2023-05-21T13:23:23.407Z,22.85
2023-05-21T13:25:53.149Z,22.91
2023-05-21T13:28:23.858Z,22.91
2023-05-21T13:30:55.135Z,22.88
2023-05-21T13:33:25.279Z,22.94
2023-05-21T13:35:57.721Z,22.99
2023-05-21T13:38:27.546Z,23.02
2023-05-21T13:40:57.365Z,23.05
2023-05-21T13:43:27.131Z,23.05
2023-05-21T13:45:56.889Z,23.11
2023-05-21T13:48:26.654Z,23.16
2023-05-21T13:50:59.001Z,23.10
2023-05-21T13:53:28.740Z,23.09
2023-05-21T13:55:58.489Z,23.14
2023-05-21T13:58:28.239Z,23.11
2023-05-21T14:00:58.099Z,23.08
2023-05-21T14:03:27.991Z,23.08
2023-05-21T14:06:00.608Z,23.10
2023-05-21T14:08:30.772Z,23.14
2023-05-21T14:11:03.317Z,23.21
2023-05-21T14:13:34.493Z,23.24
2023-05-21T14:16:04.236Z,23.20
2023-05-21T14:18:34.002Z,23.29
2023-05-21T14:21:06.624Z,23.31
2023-05-21T14:23:36.377Z,23.33
2023-05-21T14:26:06.165Z,23.35
2023-05-21T14:28:36.013Z,23.37
2023-05-21T14:31:05.872Z,23.36
2023-05-21T14:33:35.708Z,23.37
2023-05-21T14:36:09.035Z,23.37
2023-05-21T14:38:38.814Z,23.41
2023-05-21T14:41:09.891Z,23.38
2023-05-21T14:43:39.681Z,23.39
2023-05-21T14:46:09.437Z,23.39
2023-05-21T14:48:39.234Z,23.39
2023-05-21T14:51:11.543Z,23.39
2023-05-21T14:53:41.419Z,23.43
2023-05-21T14:56:11.462Z,23.42
2023-05-21T14:58:41.223Z,23.42
2023-05-21T15:01:11.016Z,23.45
2023-05-21T15:03:41.394Z,23.43
2023-05-21T15:06:14.639Z,23.48
2023-05-21T15:08:45.231Z,23.49
2023-05-21T15:11:15.185Z,23.54
2023-05-21T15:13:45.043Z,23.60
2023-05-21T15:16:16.040Z,23.61
2023-05-21T15:18:47.047Z,23.62
2023-05-21T15:21:19.391Z,23.56
2023-05-21T15:23:49.161Z,23.56
2023-05-21T15:26:19.069Z,23.56
2023-05-21T15:28:48.863Z,23.58
2023-05-21T15:31:18.585Z,23.60
2023-05-21T15:33:49.093Z,23.58
2023-05-21T15:36:21.632Z,23.59
2023-05-21T15:38:51.349Z,23.64
2023-05-21T15:41:22.102Z,23.64
2023-05-21T15:43:52.017Z,23.64
2023-05-21T15:46:21.762Z,23.65
2023-05-21T15:48:51.628Z,23.69
2023-05-21T15:51:24.103Z,23.72
2023-05-21T15:53:53.826Z,23.72
2023-05-21T15:56:23.758Z,23.75
2023-05-21T15:58:53.477Z,23.76
2023-05-21T16:01:23.288Z,23.73
2023-05-21T16:03:53.249Z,23.73
2023-05-21T16:06:25.982Z,23.76
2023-05-21T16:08:55.714Z,23.76
2023-05-21T16:11:25.519Z,23.75
2023-05-21T16:13:55.748Z,23.76
2023-05-21T16:16:26.405Z,23.77
2023-05-21T16:18:56.819Z,23.77
2023-05-21T16:21:29.164Z,23.77
2023-05-21T16:23:58.946Z,23.76
2023-05-21T16:26:28.676Z,23.76
2023-05-21T16:28:58.891Z,23.76
2023-05-21T16:31:28.673Z,23.77
2023-05-21T16:33:58.742Z,23.78
2023-05-21T16:36:31.246Z,23.79
2023-05-21T16:39:01.040Z,23.79
2023-05-21T16:41:30.782Z,23.80
2023-05-21T16:44:00.909Z,23.77
2023-05-21T16:46:30.762Z,23.78
2023-05-21T16:49:00.549Z,23.74
2023-05-21T16:51:34.129Z,23.72
2023-05-21T16:54:04.900Z,23.69
2023-05-21T16:56:34.803Z,23.60
2023-05-21T16:59:04.617Z,23.58
2023-05-21T17:01:34.385Z,23.55
2023-05-21T17:04:04.407Z,23.52
2023-05-21T17:06:36.973Z,23.45
2023-05-21T17:09:06.930Z,23.42
2023-05-21T17:11:36.886Z,23.34
2023-05-21T17:14:06.636Z,23.28
2023-05-21T17:16:36.479Z,23.29
2023-05-21T17:19:06.815Z,23.29
2023-05-21T17:21:39.536Z,23.26
2023-05-21T17:24:10.183Z,23.22
2023-05-21T17:26:40.169Z,23.22
2023-05-21T17:29:09.984Z,23.21
2023-05-21T17:31:39.778Z,23.20
2023-05-21T17:34:09.652Z,23.19
2023-05-21T17:36:42.067Z,23.18
2023-05-21T17:39:11.828Z,23.16
2023-05-21T17:41:41.524Z,23.12
2023-05-21T17:44:11.556Z,23.09
2023-05-21T17:46:41.463Z,23.06
2023-05-21T17:49:11.374Z,23.02
2023-05-21T17:51:43.802Z,22.98
2023-05-21T17:54:13.801Z,22.94
2023-05-21T17:56:46.233Z,22.91
2023-05-21T17:59:17.578Z,22.83
2023-05-21T18:01:47.510Z,22.77
2023-05-21T18:04:17.909Z,22.71
2023-05-21T18:06:50.339Z,22.66
2023-05-21T18:09:20.069Z,22.61
2023-05-21T18:11:49.885Z,22.57
2023-05-21T18:14:19.690Z,22.54
2023-05-21T18:16:49.486Z,22.47
2023-05-21T18:19:20.305Z,22.41
2023-05-21T18:21:53.046Z,22.39
2023-05-21T18:24:22.807Z,22.37
2023-05-21T18:26:52.512Z,22.31
2023-05-21T18:29:22.214Z,22.30
2023-05-21T18:31:51.960Z,22.28
2023-05-21T18:34:22.732Z,22.25
2023-05-21T18:36:55.123Z,22.23
2023-05-21T18:39:24.968Z,22.20
2023-05-21T18:42:11.437Z,22.15
2023-05-21T18:44:42.471Z,22.14
2023-05-21T18:47:12.886Z,22.10
2023-05-21T18:49:42.679Z,22.05
2023-05-21T18:52:15.036Z,22.00
2023-05-21T18:54:44.830Z,21.97
2023-05-21T18:57:14.625Z,21.94
2023-05-21T18:59:44.335Z,21.90
2023-05-21T19:02:14.294Z,21.87
2023-05-21T19:04:44.222Z,21.83
2023-05-21T19:07:16.632Z,21.78
2023-05-21T19:09:46.386Z,21.72
2023-05-21T19:12:16.133Z,21.70
2023-05-21T19:14:46.728Z,21.65
2023-05-21T19:17:16.849Z,21.60
2023-05-21T19:19:46.829Z,21.49
2023-05-21T19:22:19.219Z,21.44
2023-05-21T19:24:49.052Z,21.37
2023-05-21T19:27:19.206Z,21.31
2023-05-21T19:29:48.958Z,21.23
2023-05-21T19:32:18.928Z,21.17
2023-05-21T19:34:48.677Z,21.12
2023-05-21T19:37:21.015Z,21.06
2023-05-21T19:39:50.803Z,20.99
2023-05-21T19:42:21.674Z,20.94
2023-05-21T19:44:51.599Z,20.85
2023-05-21T19:47:21.403Z,20.79
2023-05-21T19:49:51.125Z,20.73
2023-05-21T19:52:23.509Z,20.67
2023-05-21T19:54:53.314Z,20.61
2023-05-21T19:57:23.273Z,20.56
2023-05-21T19:59:53.150Z,20.51
2023-05-21T20:02:23.398Z,20.48
2023-05-21T20:04:53.656Z,20.46
2023-05-21T20:07:26.227Z,20.40
2023-05-21T20:09:56.126Z,20.37
2023-05-21T20:12:25.931Z,20.32
2023-05-21T20:14:56.971Z,20.28
2023-05-21T20:17:28.767Z,20.23
2023-05-21T20:20:01.447Z,20.17
2023-05-21T20:22:33.916Z,20.07
2023-05-21T20:25:04.310Z,19.98
2023-05-21T20:27:35.350Z,19.92
2023-05-21T20:30:05.531Z,19.82
2023-05-21T20:32:35.319Z,19.71
2023-05-21T20:35:05.247Z,19.62
2023-05-21T20:37:37.516Z,19.55
2023-05-21T20:40:09.272Z,19.50
2023-05-21T20:42:40.287Z,19.46
2023-05-21T20:45:12.958Z,19.43
2023-05-21T20:47:43.609Z,19.40
2023-05-21T20:50:14.695Z,19.38
2023-05-21T20:52:47.442Z,19.37
2023-05-21T20:55:17.375Z,19.35
2023-05-21T20:57:47.370Z,19.34
2023-05-21T21:00:18.234Z,19.30
2023-05-21T21:02:48.128Z,19.27
2023-05-21T21:05:20.257Z,19.24
2023-05-21T21:07:55.478Z,19.22
2023-05-21T21:10:25.644Z,19.17
2023-05-21T21:12:55.479Z,19.15
2023-05-21T21:15:25.201Z,19.13
2023-05-21T21:17:54.962Z,19.06
2023-05-21T21:20:24.732Z,18.99
2023-05-21T21:22:57.053Z,18.90
2023-05-21T21:25:26.928Z,18.88
2023-05-21T21:27:57.180Z,18.85
2023-05-21T21:30:27.039Z,18.83
2023-05-21T21:32:56.855Z,18.78
2023-05-21T21:35:26.593Z,18.79
2023-05-21T21:37:59.095Z,18.78
2023-05-21T21:40:28.917Z,18.77
2023-05-21T21:42:58.606Z,18.77
2023-05-21T21:45:28.396Z,18.74
2023-05-21T21:47:58.223Z,18.72
2023-05-21T21:50:28.036Z,18.71
2023-05-21T21:53:01.347Z,18.70
2023-05-21T21:55:31.799Z,18.67
2023-05-21T21:58:01.702Z,18.66
2023-05-21T22:00:31.471Z,18.63
2023-05-21T22:03:01.262Z,18.59
2023-05-21T22:05:32.808Z,18.59
2023-05-21T22:08:05.280Z,18.54
2023-05-21T22:10:38.504Z,18.51
2023-05-21T22:13:08.562Z,18.47
2023-05-21T22:15:38.588Z,18.44
2023-05-21T22:18:10.360Z,18.42
2023-05-21T22:20:40.430Z,18.40
2023-05-21T22:23:12.895Z,18.36
2023-05-21T22:25:42.697Z,18.33
2023-05-21T22:28:12.426Z,18.28
2023-05-21T22:30:42.259Z,18.24
2023-05-21T22:33:12.038Z,18.21
2023-05-21T22:35:41.832Z,18.17
2023-05-21T22:38:14.142Z,18.11
2023-05-21T22:40:43.856Z,18.06
2023-05-21T22:43:13.576Z,18.02
2023-05-21T22:45:44.390Z,17.98
2023-05-21T22:48:14.441Z,17.95
2023-05-21T22:50:44.614Z,17.91
2023-05-21T22:53:17.108Z,17.86
2023-05-21T22:55:47.183Z,17.82
2023-05-21T22:58:16.965Z,17.80
2023-05-21T23:00:46.936Z,17.78
2023-05-21T23:03:16.934Z,17.73
2023-05-21T23:05:46.837Z,17.72
2023-05-21T23:08:19.411Z,17.67
2023-05-21T23:10:49.160Z,17.63
2023-05-21T23:13:18.902Z,17.62
2023-05-21T23:15:48.812Z,17.57
2023-05-21T23:18:18.702Z,17.55
2023-05-21T23:20:48.408Z,17.50
2023-05-21T23:23:20.940Z,17.46
2023-05-21T23:25:52.068Z,17.42
2023-05-21T23:28:21.862Z,17.36
2023-05-21T23:30:51.659Z,17.30
2023-05-21T23:33:21.718Z,17.28
2023-05-21T23:35:51.418Z,17.24
2023-05-21T23:38:23.737Z,17.20
2023-05-21T23:40:53.789Z,17.19
2023-05-21T23:43:23.608Z,17.18
2023-05-21T23:45:53.433Z,17.17
2023-05-21T23:48:23.117Z,17.14
2023-05-21T23:50:52.848Z,17.10
2023-05-21T23:53:25.198Z,17.08
2023-05-21T23:55:55.036Z,17.04
2023-05-21T23:58:24.800Z,17.01
